Time;durP1;ratioP1;P1;durP2;ratioP2;P2;SDS_P1;SDS_P2;PMS_P1;PMS_P2;Temp;Humidity;BMP_temperature;BMP_pressure;BME280_temperature;BME280_humidity;BME280_pressure;Samples;Min_cycle;Max_cycle;Signal;HPM_P1;HPM_P2
2022/03/24 00:00:07;;;;;;;39.90;25.98;;;;;;;5.91;68.94;103023.81;2071527;28;44397;-73
2022/03/24 00:01:16;;;;;;;44.50;29.42;;;;;;;5.96;71.21;103013.34;2054725;28;20170;-73
2022/03/24 00:02:17;;;;;;;40.85;26.08;;;;;;;5.93;70.56;103018.53;2056431;28;44924;-73
2022/03/24 00:03:19;;;;;;;46.72;29.58;;;;;;;5.95;69.36;103015.94;2071053;28;45587;-72
2022/03/24 00:04:26;;;;;;;48.08;28.75;;;;;;;6.01;69.78;103014.41;2071296;28;39963;-73
2022/03/24 00:05:28;;;;;;;44.38;27.33;;;;;;;6.05;69.42;103016.28;2071258;28;43918;-71
2022/03/24 00:06:32;;;;;;;49.55;28.80;;;;;;;6.18;69.42;103020.19;2071565;28;42645;-71
2022/03/24 00:07:34;;;;;;;42.38;25.48;;;;;;;6.16;69.08;103013.03;2071396;28;44536;-71
2022/03/24 00:08:36;;;;;;;43.28;26.25;;;;;;;6.16;68.31;103002.41;2071678;28;41648;-71
2022/03/24 00:09:38;;;;;;;45.70;27.25;;;;;;;6.20;69.58;103007.84;2071818;28;44431;-71
2022/03/24 00:10:39;;;;;;;43.35;27.67;;;;;;;6.23;68.83;103010.59;2071486;28;46159;-70
2022/03/24 00:11:41;;;;;;;43.92;26.35;;;;;;;6.20;68.35;103010.50;2071659;28;46122;-72
2022/03/24 00:12:44;;;;;;;34.63;23.88;;;;;;;6.17;68.64;103022.81;2062775;28;44707;-72
2022/03/24 00:13:48;;;;;;;48.85;26.48;;;;;;;6.19;69.64;103007.78;2063283;28;34018;-72
2022/03/24 00:14:50;;;;;;;46.10;27.50;;;;;;;6.22;68.79;103006.13;2071876;28;36162;-72
2022/03/24 00:15:52;;;;;;;45.05;27.20;;;;;;;6.25;68.43;103010.66;2071625;28;43339;-72
2022/03/24 00:16:54;;;;;;;49.25;26.77;;;;;;;6.27;68.17;103014.25;2071430;28;46821;-73
2022/03/24 00:17:56;;;;;;;44.72;28.25;;;;;;;6.28;67.68;103008.97;2071394;28;45058;-72
2022/03/24 00:18:59;;;;;;;44.03;27.35;;;;;;;6.37;68.69;103005.66;2072539;28;20080;-71
2022/03/24 00:20:01;;;;;;;45.67;27.95;;;;;;;6.48;68.25;103006.84;2062816;28;46219;-70
2022/03/24 00:21:05;;;;;;;41.15;24.67;;;;;;;6.48;67.54;103004.19;2064505;28;20245;-71
2022/03/24 00:22:06;;;;;;;42.85;25.90;;;;;;;6.59;67.73;103004.50;2071592;28;29801;-71
2022/03/24 00:23:09;;;;;;;49.22;28.05;;;;;;;6.64;67.93;103010.84;2071065;28;45967;-71
2022/03/24 00:24:14;;;;;;;50.35;28.15;;;;;;;6.69;67.22;103006.53;2071736;28;45057;-70
2022/03/24 00:25:15;;;;;;;44.53;26.55;;;;;;;6.65;66.91;103009.97;2071276;28;46267;-71
2022/03/24 00:26:17;;;;;;;44.42;27.58;;;;;;;6.69;67.11;103006.53;2071541;28;42692;-71
2022/03/24 00:27:20;;;;;;;46.15;27.85;;;;;;;6.66;66.71;103008.22;2072039;28;20054;-71
2022/03/24 00:28:22;;;;;;;48.85;27.60;;;;;;;6.62;66.65;103001.91;2072539;28;20046;-71
2022/03/24 00:29:24;;;;;;;41.38;26.30;;;;;;;6.61;67.15;103005.41;2062440;28;45374;-71
2022/03/24 00:30:28;;;;;;;45.42;26.58;;;;;;;6.62;67.58;103006.31;2063045;28;32918;-71
2022/03/24 00:31:35;;;;;;;48.80;26.90;;;;;;;6.63;67.08;103006.38;2063340;28;20089;-71
2022/03/24 00:32:37;;;;;;;43.05;26.83;;;;;;;6.63;67.12;103014.34;2055148;28;20051;-70
2022/03/24 00:33:39;;;;;;;43.05;25.70;;;;;;;6.61;67.56;103009.84;2062621;28;46184;-71
2022/03/24 00:34:40;;;;;;;45.00;27.95;;;;;;;6.63;67.38;103010.78;2062188;28;45864;-71
2022/03/24 00:35:42;;;;;;;47.53;29.35;;;;;;;6.73;67.42;102999.53;2062725;28;34653;-71
2022/03/24 00:36:44;;;;;;;43.13;25.55;;;;;;;6.68;67.15;103001.16;2071630;28;30513;-71
2022/03/24 00:37:46;;;;;;;45.47;28.13;;;;;;;6.65;67.04;103003.75;2062951;28;20052;-71
2022/03/24 00:38:52;;;;;;;37.70;25.38;;;;;;;6.61;67.51;103001.88;2062903;28;45842;-71
2022/03/24 00:39:55;;;;;;;43.47;27.95;;;;;;;6.63;67.29;103003.69;2071734;28;20046;-70
2022/03/24 00:40:57;;;;;;;44.92;26.60;;;;;;;6.58;66.92;103001.78;2063581;28;20178;-71
2022/03/24 00:42:11;;;;;;;44.00;27.95;;;;;;;6.59;68.19;103000.94;2062651;28;43448;-72
2022/03/24 00:43:15;;;;;;;45.47;27.13;;;;;;;6.54;67.98;103003.47;2072962;28;20076;-72
2022/03/24 00:44:21;;;;;;;51.30;29.23;;;;;;;6.57;67.26;102999.97;2062536;28;47836;-71
2022/03/24 00:45:23;;;;;;;51.95;28.92;;;;;;;6.60;67.49;103008.03;2064061;28;20047;-71
2022/03/24 00:46:24;;;;;;;43.67;26.83;;;;;;;6.66;67.68;103002.91;2071407;28;20089;-71
2022/03/24 00:47:27;;;;;;;47.05;28.75;;;;;;;6.66;67.48;103005.56;2063527;28;20212;-71
2022/03/24 00:48:29;;;;;;;41.22;26.27;;;;;;;6.59;67.42;103008.91;2063411;28;20101;-71
2022/03/24 00:49:31;;;;;;;46.97;26.95;;;;;;;6.57;67.52;103003.53;2071266;28;46589;-71
2022/03/24 00:50:38;;;;;;;39.88;27.20;;;;;;;6.64;66.91;103009.91;2071123;28;43530;-71
2022/03/24 00:51:39;;;;;;;52.08;28.98;;;;;;;6.74;66.51;103006.66;2071124;28;45458;-71
2022/03/24 00:52:42;;;;;;;45.28;27.95;;;;;;;6.72;66.51;103002.16;2072054;28;20043;-70
2022/03/24 00:53:45;;;;;;;46.58;28.33;;;;;;;6.72;67.42;103007.47;2063080;28;20875;-70
2022/03/24 00:54:46;;;;;;;46.03;27.08;;;;;;;6.69;66.85;103001.22;2063426;28;20938;-71
2022/03/24 00:55:52;;;;;;;44.13;26.73;;;;;;;6.64;66.58;103004.59;2063259;28;20145;-71
2022/03/24 00:56:54;;;;;;;45.75;28.63;;;;;;;6.64;66.80;103004.59;2062704;28;33614;-70
2022/03/24 00:57:56;;;;;;;45.80;28.30;;;;;;;6.65;66.82;103001.09;2071101;28;22943;-70
2022/03/24 00:58:58;;;;;;;47.40;27.77;;;;;;;6.63;68.13;103008.13;2062135;28;42707;-71
2022/03/24 00:59:59;;;;;;;48.30;27.75;;;;;;;6.61;66.76;103007.19;2062703;28;29448;-70
2022/03/24 01:01:04;;;;;;;47.15;28.40;;;;;;;6.52;67.49;103004.28;2071233;28;39009;-71
2022/03/24 01:02:09;;;;;;;42.05;26.60;;;;;;;6.45;66.71;102998.78;2071829;28;20052;-71
2022/03/24 01:03:12;;;;;;;43.45;27.08;;;;;;;6.42;67.01;102998.69;2072193;28;20050;-71
2022/03/24 01:04:17;;;;;;;45.63;26.88;;;;;;;6.32;66.82;102996.66;2063322;28;20864;-71
2022/03/24 01:05:21;;;;;;;42.17;26.70;;;;;;;6.29;67.75;103001.88;2062571;28;46246;-73
2022/03/24 01:06:26;;;;;;;46.85;26.95;;;;;;;6.21;68.03;102998.09;2071904;28;37056;-72
2022/03/24 01:07:28;;;;;;;49.28;28.80;;;;;;;6.10;67.44;102998.72;2071502;28;32886;-73
2022/03/24 01:08:31;;;;;;;46.40;28.38;;;;;;;6.06;68.54;102998.56;2062657;28;20202;-73
2022/03/24 01:09:32;;;;;;;47.22;28.95;;;;;;;5.95;68.22;102994.66;2062522;28;45982;-73
2022/03/24 01:10:36;;;;;;;50.00;29.15;;;;;;;5.84;67.74;102991.69;2071422;28;24548;-72
2022/03/24 01:11:38;;;;;;;43.40;28.23;;;;;;;5.73;69.31;103000.22;2070763;28;45720;-73
2022/03/24 01:12:40;;;;;;;44.88;27.30;;;;;;;5.63;68.60;102992.81;2070874;28;45135;-73
2022/03/24 01:13:43;;;;;;;46.30;28.55;;;;;;;5.54;68.65;102997.84;2063150;28;20093;-73
2022/03/24 01:14:46;;;;;;;44.50;26.85;;;;;;;5.45;69.22;102995.81;2062869;28;44866;-73
2022/03/24 01:15:49;;;;;;;47.67;27.45;;;;;;;5.37;69.37;102993.81;2072030;28;20151;-73
2022/03/24 01:16:52;;;;;;;44.20;27.23;;;;;;;5.29;70.42;102994.47;2072354;28;21031;-73
2022/03/24 01:17:55;;;;;;;41.92;27.55;;;;;;;5.22;70.86;102994.19;2071285;28;44366;-73
2022/03/24 01:18:57;;;;;;;39.50;25.35;;;;;;;5.15;70.44;102990.41;2063043;28;30283;-73
2022/03/24 01:19:58;;;;;;;46.45;28.30;;;;;;;5.08;71.29;102993.72;2062246;28;43689;-73
2022/03/24 01:21:03;;;;;;;45.75;28.00;;;;;;;5.03;70.58;102992.69;2062673;28;38735;-73
2022/03/24 01:22:06;;;;;;;47.45;28.42;;;;;;;4.96;71.07;102986.28;2063151;28;32477;-73
2022/03/24 01:23:08;;;;;;;45.40;28.33;;;;;;;4.88;71.26;102986.03;2070848;28;27546;-72
2022/03/24 01:24:10;;;;;;;46.53;28.95;;;;;;;4.84;71.43;102981.44;2062800;28;20058;-73
2022/03/24 01:25:12;;;;;;;46.53;27.20;;;;;;;4.79;72.18;102988.34;2054938;28;20836;-72
2022/03/24 01:26:16;;;;;;;45.30;28.80;;;;;;;4.75;71.70;102991.75;2054962;28;20044;-73
2022/03/24 01:27:18;;;;;;;46.78;30.63;;;;;;;4.68;72.30;102985.31;2062291;28;44672;-73
2022/03/24 01:28:20;;;;;;;47.90;30.17;;;;;;;4.64;72.85;102987.84;2070379;28;28050;-73
2022/03/24 01:29:22;;;;;;;41.10;27.33;;;;;;;4.60;72.75;102986.81;2071122;28;38170;-73
2022/03/24 01:30:24;;;;;;;44.30;28.67;;;;;;;4.57;73.04;102992.03;2071718;28;20230;-74
2022/03/24 01:31:26;;;;;;;43.50;28.80;;;;;;;4.53;73.86;102991.00;2062423;28;21107;-72
2022/03/24 01:32:28;;;;;;;45.10;30.30;;;;;;;4.49;74.02;102997.06;2061915;28;45262;-73
2022/03/24 01:33:30;;;;;;;47.53;29.48;;;;;;;4.47;73.59;102990.81;2062174;28;43974;-73
2022/03/24 01:34:34;;;;;;;46.10;30.02;;;;;;;4.43;73.82;102987.97;2054853;28;20043;-73
2022/03/24 01:35:36;;;;;;;46.58;28.92;;;;;;;4.39;74.21;102989.63;2062884;28;45832;-73
2022/03/24 01:36:38;;;;;;;45.67;29.60;;;;;;;4.39;74.52;102989.63;2062069;28;43362;-73
2022/03/24 01:37:42;;;;;;;50.30;31.13;;;;;;;4.35;74.90;102993.03;2063608;28;20042;-73
2022/03/24 01:38:44;;;;;;;51.85;31.75;;;;;;;4.32;74.87;102990.25;2070741;28;43354;-73
2022/03/24 01:39:46;;;;;;;48.35;31.00;;;;;;;4.30;74.82;102984.00;2062079;28;47087;-73
2022/03/24 01:40:49;;;;;;;46.55;30.08;;;;;;;4.28;75.36;102983.03;2055594;28;20047;-73
2022/03/24 01:41:50;;;;;;;49.67;30.83;;;;;;;4.22;74.86;102975.78;2054001;28;45357;-72
2022/03/24 01:42:52;;;;;;;49.80;31.40;;;;;;;4.21;75.45;102984.56;2063107;28;46511;-73
2022/03/24 01:43:54;;;;;;;44.97;28.83;;;;;;;4.19;75.48;102978.31;2063313;28;20954;-73
2022/03/24 01:44:57;;;;;;;41.55;26.65;;;;;;;4.15;75.50;102979.94;2062881;28;45618;-74
2022/03/24 01:45:59;;;;;;;51.63;30.10;;;;;;;4.13;75.54;102976.34;2064131;28;20039;-73
2022/03/24 01:47:05;;;;;;;52.88;29.15;;;;;;;4.10;75.92;102973.56;2062408;28;44035;-73
2022/03/24 01:48:10;;;;;;;47.70;31.00;;;;;;;4.06;75.75;102970.75;2063383;28;20047;-73
2022/03/24 01:49:12;;;;;;;45.13;29.05;;;;;;;4.02;75.96;102980.34;2063312;28;43644;-73
2022/03/24 01:50:14;;;;;;;41.45;27.98;;;;;;;4.00;76.16;102976.72;2062720;28;36558;-73
2022/03/24 01:51:16;;;;;;;48.53;30.90;;;;;;;3.96;76.30;102981.00;2062446;28;20046;-73
2022/03/24 01:52:18;;;;;;;52.65;28.90;;;;;;;3.92;76.33;102972.88;2061476;28;43424;-73
2022/03/24 01:53:20;;;;;;;48.63;29.65;;;;;;;3.88;76.50;102974.53;2070254;28;20116;-74
2022/03/24 01:54:24;;;;;;;45.67;27.55;;;;;;;3.84;76.63;102975.25;2070743;28;44441;-73
2022/03/24 01:55:26;;;;;;;49.42;29.23;;;;;;;3.80;76.73;102971.59;2071897;28;20124;-72
2022/03/24 01:56:31;;;;;;;47.70;29.42;;;;;;;3.76;77.17;102977.59;2062789;28;20120;-73
2022/03/24 01:57:34;;;;;;;50.08;31.23;;;;;;;3.74;76.70;102979.28;2054075;28;47113;-73
2022/03/24 01:58:38;;;;;;;50.28;30.67;;;;;;;3.70;77.09;102974.72;2054458;28;20816;-73
2022/03/24 01:59:40;;;;;;;49.80;28.75;;;;;;;3.67;77.50;102969.31;2062993;28;21070;-72
2022/03/24 02:00:45;;;;;;;53.65;30.30;;;;;;;3.65;77.73;102976.28;2070658;28;20070;-73
2022/03/24 02:01:48;;;;;;;45.45;30.30;;;;;;;3.62;77.74;102970.88;2071433;28;20042;-73
2022/03/24 02:02:52;;;;;;;46.05;28.35;;;;;;;3.59;78.15;102976.06;2072124;28;20046;-73
2022/03/24 02:03:55;;;;;;;46.03;29.35;;;;;;;3.57;77.52;102978.66;2070515;28;45774;-74
2022/03/24 02:04:57;;;;;;;42.60;27.25;;;;;;;3.56;77.93;102978.59;2062994;28;20125;-73
2022/03/24 02:06:06;;;;;;;48.40;29.92;;;;;;;3.50;77.74;102976.63;2062679;28;20231;-73
2022/03/24 02:07:08;;;;;;;48.17;30.63;;;;;;;3.48;78.07;102974.72;2054740;28;20055;-72
2022/03/24 02:08:10;;;;;;;51.53;30.55;;;;;;;3.43;78.49;102977.22;2053753;28;36850;-73
2022/03/24 02:09:13;;;;;;;44.33;26.95;;;;;;;3.41;78.10;102974.50;2062569;28;20051;-73
2022/03/24 02:10:15;;;;;;;49.38;30.17;;;;;;;3.37;78.01;102974.31;2071082;28;20977;-73
2022/03/24 02:11:20;;;;;;;46.40;29.95;;;;;;;3.35;78.71;102974.25;2054703;28;20126;-72
2022/03/24 02:12:23;;;;;;;50.90;30.20;;;;;;;3.35;79.04;102974.25;2055710;28;21002;-73
2022/03/24 02:13:24;;;;;;;48.65;30.30;;;;;;;3.35;79.24;102976.00;2071075;28;20112;-73
2022/03/24 02:14:29;;;;;;;42.53;28.50;;;;;;;3.30;78.68;102975.81;2054546;28;20048;-73
2022/03/24 02:15:33;;;;;;;46.35;31.17;;;;;;;3.28;78.93;102980.13;2048022;28;21051;-73
2022/03/24 02:16:38;;;;;;;46.78;30.05;;;;;;;3.27;79.50;102977.41;2061792;28;44731;-72
2022/03/24 02:17:41;;;;;;;51.17;31.17;;;;;;;3.27;79.07;102972.13;2070967;28;20102;-73
2022/03/24 02:18:45;;;;;;;54.58;33.28;;;;;;;3.23;79.69;102971.09;2061802;28;41931;-72
2022/03/24 02:19:47;;;;;;;49.58;32.22;;;;;;;3.21;79.36;102976.38;2062240;28;48217;-72
2022/03/24 02:20:51;;;;;;;50.60;31.45;;;;;;;3.18;79.75;102972.69;2062771;28;20161;-73
2022/03/24 02:23:26;;;;;;;46.75;29.33;;;;;;;3.14;80.04;102970.75;2088269;28;20503;-76
2022/03/24 02:24:28;;;;;;;47.92;31.25;;;;;;;3.14;80.07;102976.97;2079697;28;31203;-75
2022/03/24 02:25:32;;;;;;;53.10;31.67;;;;;;;3.11;80.52;102968.00;2057309;28;45006;-75
2022/03/24 02:26:36;;;;;;;51.35;31.05;;;;;;;3.09;79.74;102974.94;2063552;28;44170;-75
2022/03/24 02:27:39;;;;;;;51.78;32.47;;;;;;;3.06;79.50;102981.03;2071682;28;34857;-75
2022/03/24 02:28:42;;;;;;;49.50;31.25;;;;;;;3.02;79.85;102973.81;2071488;28;46290;-75
2022/03/24 02:29:47;;;;;;;50.33;30.20;;;;;;;2.99;80.59;102971.91;2071883;28;45855;-76
2022/03/24 02:30:50;;;;;;;53.22;32.33;;;;;;;2.97;80.16;102973.59;2071453;28;44421;-76
2022/03/24 02:31:52;;;;;;;50.63;31.20;;;;;;;2.94;80.13;102973.47;2079316;28;46756;-74
2022/03/24 02:32:55;;;;;;;50.15;32.33;;;;;;;2.94;80.79;102976.13;2071226;28;44816;-75
2022/03/24 02:34:37;;;;;;;50.08;31.30;;;;;;;2.92;81.23;102975.16;2063500;28;43651;-75
2022/03/24 02:35:19;;;;;;;53.92;32.70;;;;;;;2.91;80.37;102970.72;2071315;28;44700;-75
2022/03/24 02:36:20;;;;;;;56.75;32.97;;;;;;;2.89;80.60;102967.13;2072025;28;42912;-74
2022/03/24 02:37:25;;;;;;;48.85;29.85;;;;;;;2.87;81.44;102966.13;2072029;28;45262;-75
2022/03/24 02:38:26;;;;;;;53.75;31.80;;;;;;;2.86;81.04;102967.88;2070921;28;44470;-75
2022/03/24 02:39:28;;;;;;;54.83;33.33;;;;;;;2.84;81.14;102973.94;2071674;28;44105;-75
2022/03/24 02:40:30;;;;;;;53.33;32.22;;;;;;;2.83;81.47;102961.53;2072906;28;20746;-74
2022/03/24 02:41:32;;;;;;;50.95;31.70;;;;;;;2.82;81.65;102965.06;2072262;28;43044;-74
2022/03/24 02:42:34;;;;;;;53.80;32.22;;;;;;;2.80;81.64;102964.06;2072078;28;44040;-74
2022/03/24 02:43:35;;;;;;;51.80;31.70;;;;;;;2.79;81.09;102965.81;2071017;28;44686;-73
2022/03/24 02:44:38;;;;;;;52.42;31.70;;;;;;;2.75;80.95;102963.88;2071246;28;41792;-75
2022/03/24 02:45:39;;;;;;;52.95;32.70;;;;;;;2.75;81.26;102963.00;2071533;28;45100;-74
2022/03/24 02:46:46;;;;;;;52.08;31.95;;;;;;;2.73;81.00;102964.63;2072103;28;33193;-75
2022/03/24 02:47:48;;;;;;;51.10;32.15;;;;;;;2.71;81.26;102966.31;2062898;28;44454;-75
2022/03/24 02:48:50;;;;;;;48.90;31.08;;;;;;;2.70;80.97;102965.44;2063534;28;44876;-75
2022/03/24 02:49:55;;;;;;;55.70;33.30;;;;;;;2.67;82.05;102960.94;2071965;28;44148;-75
2022/03/24 02:50:59;;;;;;;55.30;34.70;;;;;;;2.65;81.19;102961.69;2072206;28;46197;-75
2022/03/24 02:52:01;;;;;;;54.65;32.83;;;;;;;2.65;81.67;102957.28;2072506;28;23219;-74
2022/03/24 02:53:03;;;;;;;54.20;33.63;;;;;;;2.63;81.58;102958.06;2072058;28;44030;-75
2022/03/24 02:54:06;;;;;;;54.30;32.80;;;;;;;2.62;81.71;102956.25;2075402;28;20088;-74
2022/03/24 02:55:12;;;;;;;55.55;33.55;;;;;;;2.63;81.56;102951.03;2071053;28;43364;-75
2022/03/24 02:56:14;;;;;;;47.45;29.45;;;;;;;2.60;82.30;102958.88;2071441;28;43901;-75
2022/03/24 02:57:16;;;;;;;44.05;29.15;;;;;;;2.60;81.52;102957.94;2071836;28;29376;-75
2022/03/24 02:58:21;;;;;;;57.17;33.80;;;;;;;2.60;82.52;102953.56;2072648;28;20117;-75
2022/03/24 02:59:24;;;;;;;56.00;34.08;;;;;;;2.58;82.43;102955.22;2072205;28;46336;-74
2022/03/24 03:00:27;;;;;;;51.85;30.45;;;;;;;2.58;82.13;102949.03;2071612;28;28953;-75
2022/03/24 03:01:31;;;;;;;55.58;33.63;;;;;;;2.54;82.33;102958.59;2071069;28;43505;-73
2022/03/24 03:02:34;;;;;;;55.42;34.50;;;;;;;2.53;82.58;102958.50;2072257;28;36123;-75
2022/03/24 03:03:36;;;;;;;52.42;31.45;;;;;;;2.50;82.03;102961.94;2071396;28;45317;-74
2022/03/24 03:04:38;;;;;;;49.55;29.98;;;;;;;2.48;82.56;102959.22;2071808;28;44843;-75
2022/03/24 03:05:40;;;;;;;52.72;32.38;;;;;;;2.46;81.98;102960.00;2071807;28;43166;-75
2022/03/24 03:06:42;;;;;;;49.90;31.95;;;;;;;2.45;82.90;102958.19;2071621;28;44046;-75
2022/03/24 03:07:44;;;;;;;54.75;32.78;;;;;;;2.43;82.28;102960.75;2071442;28;43557;-74
2022/03/24 03:08:49;;;;;;;60.20;33.42;;;;;;;2.42;82.32;102965.97;2071675;28;45365;-75
2022/03/24 03:09:51;;;;;;;56.45;34.15;;;;;;;2.41;82.70;102964.19;2071703;28;32746;-75
2022/03/24 03:10:55;;;;;;;55.30;32.88;;;;;;;2.39;82.58;102972.06;2071143;28;43157;-75
2022/03/24 03:11:58;;;;;;;59.60;34.35;;;;;;;2.38;82.87;102961.41;2071001;28;44074;-75
2022/03/24 03:13:02;;;;;;;50.25;30.42;;;;;;;2.37;82.77;102962.22;2064091;28;20073;-75
2022/03/24 03:14:04;;;;;;;54.05;32.58;;;;;;;2.37;83.62;102962.22;2064388;28;22663;-75
2022/03/24 03:15:06;;;;;;;53.95;32.75;;;;;;;2.36;82.92;102969.25;2072072;28;45359;-74
2022/03/24 03:16:08;;;;;;;60.92;34.00;;;;;;;2.33;82.32;102963.84;2071842;28;44608;-75
2022/03/24 03:17:10;;;;;;;51.17;32.40;;;;;;;2.33;83.18;102960.28;2071573;28;45754;-75
2022/03/24 03:18:12;;;;;;;56.60;32.08;;;;;;;2.32;82.92;102963.78;2071904;28;44699;-75
2022/03/24 03:19:17;;;;;;;53.00;32.33;;;;;;;2.31;83.55;102961.97;2071709;28;45130;-75
2022/03/24 03:20:19;;;;;;;56.08;34.10;;;;;;;2.29;83.23;102965.44;2071197;28;45606;-75
2022/03/24 03:21:22;;;;;;;50.40;31.33;;;;;;;2.29;83.41;102964.53;2071624;28;43532;-75
2022/03/24 03:22:26;;;;;;;61.10;32.47;;;;;;;2.28;83.39;102966.28;2071747;28;45460;-75
2022/03/24 03:23:28;;;;;;;52.60;31.80;;;;;;;2.26;84.00;102956.47;2062752;28;46010;-75
2022/03/24 03:24:30;;;;;;;52.28;31.45;;;;;;;2.25;83.71;102967.91;2063188;28;43003;-75
2022/03/24 03:25:31;;;;;;;41.42;28.88;;;;;;;2.23;83.78;102957.25;2072113;28;20094;-75
2022/03/24 03:26:34;;;;;;;58.90;35.05;;;;;;;2.23;83.67;102957.25;2071535;28;45612;-74
2022/03/24 03:27:35;;;;;;;50.28;30.70;;;;;;;2.21;83.51;102958.03;2071198;28;44135;-74
2022/03/24 03:28:37;;;;;;;52.20;30.98;;;;;;;2.21;83.60;102963.31;2071521;28;45158;-74
2022/03/24 03:29:40;;;;;;;52.88;32.22;;;;;;;2.21;83.94;102958.03;2071945;28;43681;-75
2022/03/24 03:30:45;;;;;;;58.10;34.60;;;;;;;2.20;84.31;102957.13;2071984;28;44290;-75
2022/03/24 03:31:46;;;;;;;52.40;30.60;;;;;;;2.18;83.27;102950.88;2070870;28;45834;-75
2022/03/24 03:32:48;;;;;;;47.40;29.10;;;;;;;2.16;83.92;102955.19;2071456;28;45323;-75
2022/03/24 03:33:55;;;;;;;53.60;32.72;;;;;;;2.13;83.50;102956.78;2071813;28;36267;-75
2022/03/24 03:35:01;;;;;;;56.95;34.15;;;;;;;2.08;83.63;102953.94;2071765;28;43448;-74
2022/03/24 03:36:04;;;;;;;60.08;33.97;;;;;;;2.05;83.68;102964.38;2070893;28;45676;-75
2022/03/24 03:37:05;;;;;;;55.42;32.03;;;;;;;2.03;83.96;102968.69;2071774;28;46084;-74
2022/03/24 03:38:10;;;;;;;57.88;35.47;;;;;;;2.01;84.16;102950.13;2071287;28;45185;-75
2022/03/24 03:39:12;;;;;;;53.88;33.08;;;;;;;1.99;84.04;102958.81;2071343;28;44796;-75
2022/03/24 03:40:13;;;;;;;57.45;33.97;;;;;;;1.98;84.86;102955.25;2071633;28;43538;-75
2022/03/24 03:41:18;;;;;;;54.63;32.30;;;;;;;1.96;84.75;102954.31;2072330;28;20165;-75
2022/03/24 03:42:19;;;;;;;60.90;36.28;;;;;;;1.95;84.68;102959.50;2071032;28;44280;-74
2022/03/24 03:43:22;;;;;;;62.47;34.67;;;;;;;1.95;85.06;102964.78;2063451;28;44105;-75
2022/03/24 03:44:24;;;;;;;56.25;32.15;;;;;;;1.96;84.58;102963.97;2063585;28;27119;-75
2022/03/24 03:45:26;;;;;;;60.80;34.33;;;;;;;1.93;85.25;102955.91;2071338;28;43410;-75
2022/03/24 03:46:28;;;;;;;59.28;34.13;;;;;;;1.93;84.93;102959.44;2071237;28;45492;-74
2022/03/24 03:47:32;;;;;;;60.25;33.30;;;;;;;1.93;84.49;102958.53;2071773;28;20041;-75
2022/03/24 03:48:38;;;;;;;55.28;33.47;;;;;;;1.93;85.26;102954.16;2062722;28;43822;-75
2022/03/24 03:49:39;;;;;;;52.70;30.13;;;;;;;1.89;84.96;102961.03;2063149;28;45783;-75
2022/03/24 03:51:01;;;;;;;60.17;33.45;;;;;;;1.88;84.80;102953.03;2071644;28;44999;-74
2022/03/24 03:52:03;;;;;;;61.67;34.30;;;;;;;1.88;85.42;102959.25;2071784;28;43998;-75
2022/03/24 03:53:05;;;;;;;57.45;33.40;;;;;;;1.85;85.10;102953.81;2070766;28;46519;-75
2022/03/24 03:54:10;;;;;;;56.13;33.15;;;;;;;1.85;85.50;102956.47;2070582;28;27921;-74
2022/03/24 03:55:11;;;;;;;61.03;35.65;;;;;;;1.82;85.08;102952.78;2071191;28;44361;-74
2022/03/24 03:56:16;;;;;;;54.25;33.13;;;;;;;1.83;84.81;102957.19;2071332;28;43352;-74
2022/03/24 03:57:17;;;;;;;59.10;33.90;;;;;;;1.78;84.93;102950.84;2071053;28;43745;-74
2022/03/24 03:58:19;;;;;;;57.17;32.63;;;;;;;1.75;84.73;102956.84;2070977;28;38398;-75
2022/03/24 03:59:21;;;;;;;52.15;31.23;;;;;;;1.74;85.58;102955.03;2071428;28;45039;-73
2022/03/24 04:01:43;;;;;;;;;;;;;;;1.67;85.48;102955.59;2072075;28;40708;-75
2022/03/24 04:02:46;;;;;;;59.42;32.13;;;;;;;1.63;85.08;102957.19;2071451;28;44470;-75
2022/03/24 04:03:48;;;;;;;49.25;29.33;;;;;;;1.62;85.10;102955.41;2071459;28;46678;-74
2022/03/24 04:04:50;;;;;;;49.28;28.70;;;;;;;1.60;85.93;102957.06;2071899;28;43120;-75
2022/03/24 04:05:58;;;;;;;57.08;33.55;;;;;;;1.57;85.39;102950.75;2062959;28;43091;-74
2022/03/24 04:06:59;;;;;;;57.25;32.58;;;;;;;1.54;85.57;102954.13;2055725;28;42509;-75
2022/03/24 04:08:01;;;;;;;57.00;32.67;;;;;;;1.55;85.40;102952.41;2062957;28;45104;-75
2022/03/24 04:09:03;;;;;;;54.47;33.38;;;;;;;1.50;85.96;102958.34;2071524;28;43893;-75
2022/03/24 04:10:05;;;;;;;52.78;30.98;;;;;;;1.50;85.59;102955.72;2071433;28;44754;-74
2022/03/24 04:11:09;;;;;;;58.35;33.17;;;;;;;1.47;85.56;102963.50;2071108;28;45444;-74
2022/03/24 04:12:11;;;;;;;60.70;36.13;;;;;;;1.46;86.44;102959.06;2071619;28;45271;-75
2022/03/24 04:13:13;;;;;;;62.72;35.85;;;;;;;1.45;85.83;102957.22;2071708;28;42055;-74
2022/03/24 04:14:15;;;;;;;63.10;34.95;;;;;;;1.46;86.03;102956.41;2062586;28;42876;-74
2022/03/24 04:15:17;;;;;;;62.30;35.85;;;;;;;1.47;86.46;102955.59;2062263;28;45590;-72
2022/03/24 04:16:19;;;;;;;62.30;35.90;;;;;;;1.48;85.92;102957.38;2071153;28;44083;-74
2022/03/24 04:17:21;;;;;;;60.70;34.45;;;;;;;1.48;86.47;102957.38;2071646;28;34420;-74
2022/03/24 04:18:25;;;;;;;59.03;33.38;;;;;;;1.49;86.20;102964.47;2079218;28;44793;-73
2022/03/24 04:19:26;;;;;;;59.00;35.03;;;;;;;1.47;86.43;102963.50;2078463;28;45441;-74
2022/03/24 04:20:29;;;;;;;60.15;34.17;;;;;;;1.46;86.41;102961.69;2072642;28;20917;-74
2022/03/24 04:21:33;;;;;;;59.60;34.65;;;;;;;1.46;86.44;102963.44;2071381;28;40580;-75
2022/03/24 04:22:35;;;;;;;55.15;33.63;;;;;;;1.46;86.49;102966.06;2070720;28;44224;-75
2022/03/24 04:23:40;;;;;;;58.50;33.75;;;;;;;1.46;86.98;102959.06;2062223;28;43577;-74
2022/03/24 04:24:41;;;;;;;62.78;36.47;;;;;;;1.43;87.26;102958.91;2062825;28;44053;-75
2022/03/24 04:25:45;;;;;;;61.80;34.35;;;;;;;1.44;86.95;102959.81;2070838;28;45651;-75
2022/03/24 04:26:49;;;;;;;53.10;30.88;;;;;;;1.45;86.52;102966.91;2071208;28;45103;-75
2022/03/24 04:27:51;;;;;;;55.13;32.15;;;;;;;1.44;86.56;102959.81;2078984;28;44773;-75
2022/03/24 04:28:53;;;;;;;47.55;29.00;;;;;;;1.42;86.62;102962.38;2080546;28;20259;-75
2022/03/24 04:29:57;;;;;;;61.25;34.40;;;;;;;1.41;87.07;102959.66;2072350;28;20042;-74
2022/03/24 04:30:59;;;;;;;61.95;34.15;;;;;;;1.39;86.89;102959.59;2062906;28;45159;-75
2022/03/24 04:32:01;;;;;;;60.75;35.83;;;;;;;1.40;86.41;102957.84;2062241;28;44818;-75
2022/03/24 04:33:05;;;;;;;59.92;34.50;;;;;;;1.37;87.20;102958.63;2072318;28;20124;-74
2022/03/24 04:34:06;;;;;;;56.20;32.22;;;;;;;1.38;86.81;102956.88;2070387;28;45999;-75
2022/03/24 04:35:09;;;;;;;63.38;35.30;;;;;;;1.34;87.50;102959.34;2062813;28;44219;-74
2022/03/24 04:36:10;;;;;;;60.00;34.47;;;;;;;1.33;86.79;102956.69;2062830;28;44933;-75
2022/03/24 04:37:12;;;;;;;53.60;33.85;;;;;;;1.35;87.46;102960.28;2071700;28;44819;-75
2022/03/24 04:38:14;;;;;;;63.90;35.60;;;;;;;1.34;87.36;102956.72;2071366;28;36121;-74
2022/03/24 04:39:15;;;;;;;63.85;36.05;;;;;;;1.33;87.66;102951.41;2071381;28;43766;-75
2022/03/24 04:40:19;;;;;;;61.03;32.95;;;;;;;1.33;87.60;102954.03;2070104;28;45381;-75
2022/03/24 04:41:22;;;;;;;59.08;34.45;;;;;;;1.34;87.88;102959.34;2062260;28;44948;-74
2022/03/24 04:42:24;;;;;;;58.60;34.92;;;;;;;1.33;88.16;102957.56;2063525;28;42192;-74
2022/03/24 04:43:25;;;;;;;60.72;34.78;;;;;;;1.31;87.56;102958.31;2071096;28;44476;-75
2022/03/24 04:44:27;;;;;;;64.88;34.95;;;;;;;1.30;87.55;102961.78;2071093;28;44817;-74
2022/03/24 04:45:32;;;;;;;59.42;33.75;;;;;;;1.30;87.86;102961.78;2071649;28;34330;-74
2022/03/24 04:46:34;;;;;;;63.13;33.38;;;;;;;1.31;87.81;102963.59;2070758;28;45059;-74
2022/03/24 04:47:37;;;;;;;62.47;34.85;;;;;;;1.31;88.23;102966.22;2062408;28;44512;-74
2022/03/24 04:48:38;;;;;;;50.85;30.27;;;;;;;1.31;88.71;102960.94;2062773;28;44265;-74
2022/03/24 04:49:40;;;;;;;54.22;32.30;;;;;;;1.29;87.74;102965.25;2072595;28;21008;-74
2022/03/24 04:50:41;;;;;;;59.00;30.67;;;;;;;1.27;87.58;102956.38;2071902;28;44916;-75
2022/03/24 04:51:44;;;;;;;57.90;33.53;;;;;;;1.25;87.70;102960.66;2071151;28;44268;-75